sensor_id;sensor_type;location;lat;lon;timestamp;P1;durP1;ratioP1;P2;durP2;ratioP2
38787;SDS011;24536;45.488;12.238;2023-01-25T00:01:23;5.40;;;3.15;;
38787;SDS011;24536;45.488;12.238;2023-01-25T00:03:48;3.78;;;2.55;;
38787;SDS011;24536;45.488;12.238;2023-01-25T00:06:14;5.13;;;2.97;;
38787;SDS011;24536;45.488;12.238;2023-01-25T00:08:40;5.60;;;3.20;;
38787;SDS011;24536;45.488;12.238;2023-01-25T00:11:06;3.55;;;2.70;;
38787;SDS011;24536;45.488;12.238;2023-01-25T00:13:31;5.03;;;3.17;;
38787;SDS011;24536;45.488;12.238;2023-01-25T00:16:03;4.03;;;2.78;;
38787;SDS011;24536;45.488;12.238;2023-01-25T00:18:29;3.50;;;2.85;;
38787;SDS011;24536;45.488;12.238;2023-01-25T00:20:55;5.30;;;3.30;;
38787;SDS011;24536;45.488;12.238;2023-01-25T00:23:21;4.88;;;2.90;;
38787;SDS011;24536;45.488;12.238;2023-01-25T00:25:47;3.83;;;3.23;;
38787;SDS011;24536;45.488;12.238;2023-01-25T00:28:12;4.63;;;3.05;;
38787;SDS011;24536;45.488;12.238;2023-01-25T00:30:38;4.38;;;3.40;;
38787;SDS011;24536;45.488;12.238;2023-01-25T00:35:45;4.43;;;2.83;;
38787;SDS011;24536;45.488;12.238;2023-01-25T00:41:02;5.93;;;3.58;;
38787;SDS011;24536;45.488;12.238;2023-01-25T00:43:27;4.88;;;3.25;;
38787;SDS011;24536;45.488;12.238;2023-01-25T00:45:59;3.55;;;2.83;;
38787;SDS011;24536;45.488;12.238;2023-01-25T00:48:25;4.25;;;3.10;;
38787;SDS011;24536;45.488;12.238;2023-01-25T00:50:50;6.95;;;3.28;;
38787;SDS011;24536;45.488;12.238;2023-01-25T00:53:16;3.90;;;2.67;;
38787;SDS011;24536;45.488;12.238;2023-01-25T00:55:50;5.03;;;2.85;;
38787;SDS011;24536;45.488;12.238;2023-01-25T00:58:16;3.80;;;2.85;;
38787;SDS011;24536;45.488;12.238;2023-01-25T01:00:42;3.15;;;2.30;;
38787;SDS011;24536;45.488;12.238;2023-01-25T01:03:08;3.17;;;2.70;;
38787;SDS011;24536;45.488;12.238;2023-01-25T01:05:33;4.15;;;2.83;;
38787;SDS011;24536;45.488;12.238;2023-01-25T01:08:00;4.57;;;3.03;;
38787;SDS011;24536;45.488;12.238;2023-01-25T01:10:26;3.00;;;2.67;;
38787;SDS011;24536;45.488;12.238;2023-01-25T01:12:52;3.50;;;2.55;;
38787;SDS011;24536;45.488;12.238;2023-01-25T01:15:17;5.40;;;3.13;;
38787;SDS011;24536;45.488;12.238;2023-01-25T01:17:43;3.13;;;2.50;;
38787;SDS011;24536;45.488;12.238;2023-01-25T01:20:09;3.55;;;2.55;;
38787;SDS011;24536;45.488;12.238;2023-01-25T01:22:35;4.38;;;3.05;;
38787;SDS011;24536;45.488;12.238;2023-01-25T01:25:01;4.80;;;3.58;;
38787;SDS011;24536;45.488;12.238;2023-01-25T01:27:27;4.82;;;3.45;;
38787;SDS011;24536;45.488;12.238;2023-01-25T01:29:52;4.82;;;3.60;;
38787;SDS011;24536;45.488;12.238;2023-01-25T01:32:18;4.63;;;3.30;;
38787;SDS011;24536;45.488;12.238;2023-01-25T01:34:44;4.85;;;3.55;;
38787;SDS011;24536;45.488;12.238;2023-01-25T01:37:10;4.38;;;3.08;;
38787;SDS011;24536;45.488;12.238;2023-01-25T01:39:35;4.88;;;3.42;;
38787;SDS011;24536;45.488;12.238;2023-01-25T01:42:01;3.90;;;3.10;;
38787;SDS011;24536;45.488;12.238;2023-01-25T01:44:47;4.25;;;3.30;;
38787;SDS011;24536;45.488;12.238;2023-01-25T01:47:24;5.20;;;3.50;;
38787;SDS011;24536;45.488;12.238;2023-01-25T01:52:29;5.47;;;3.55;;
38787;SDS011;24536;45.488;12.238;2023-01-25T01:55:05;4.55;;;3.35;;
38787;SDS011;24536;45.488;12.238;2023-01-25T01:57:35;4.00;;;3.17;;
38787;SDS011;24536;45.488;12.238;2023-01-25T02:00:39;3.83;;;3.20;;
38787;SDS011;24536;45.488;12.238;2023-01-25T02:02:59;4.78;;;3.50;;
38787;SDS011;24536;45.488;12.238;2023-01-25T02:05:34;3.83;;;3.28;;
38787;SDS011;24536;45.488;12.238;2023-01-25T02:08:08;5.28;;;3.75;;
38787;SDS011;24536;45.488;12.238;2023-01-25T02:10:37;4.85;;;3.10;;
38787;SDS011;24536;45.488;12.238;2023-01-25T02:13:03;5.47;;;3.20;;
38787;SDS011;24536;45.488;12.238;2023-01-25T02:15:32;4.45;;;3.05;;
38787;SDS011;24536;45.488;12.238;2023-01-25T02:18:12;6.20;;;3.75;;
38787;SDS011;24536;45.488;12.238;2023-01-25T02:20:42;6.47;;;3.92;;
38787;SDS011;24536;45.488;12.238;2023-01-25T02:25:42;5.13;;;3.60;;
38787;SDS011;24536;45.488;12.238;2023-01-25T02:30:41;6.40;;;3.72;;
38787;SDS011;24536;45.488;12.238;2023-01-25T02:33:07;5.80;;;4.20;;
38787;SDS011;24536;45.488;12.238;2023-01-25T02:35:40;5.43;;;3.45;;
38787;SDS011;24536;45.488;12.238;2023-01-25T02:38:11;4.38;;;3.58;;
38787;SDS011;24536;45.488;12.238;2023-01-25T02:40:47;4.47;;;3.40;;
38787;SDS011;24536;45.488;12.238;2023-01-25T02:43:18;7.28;;;3.72;;
38787;SDS011;24536;45.488;12.238;2023-01-25T02:45:45;5.85;;;3.42;;
38787;SDS011;24536;45.488;12.238;2023-01-25T02:48:14;5.30;;;3.63;;
38787;SDS011;24536;45.488;12.238;2023-01-25T02:50:40;4.47;;;3.38;;
38787;SDS011;24536;45.488;12.238;2023-01-25T02:53:06;5.15;;;3.58;;
38787;SDS011;24536;45.488;12.238;2023-01-25T02:55:31;4.43;;;3.40;;
38787;SDS011;24536;45.488;12.238;2023-01-25T02:57:57;4.80;;;3.38;;
38787;SDS011;24536;45.488;12.238;2023-01-25T03:00:22;5.03;;;3.50;;
38787;SDS011;24536;45.488;12.238;2023-01-25T03:02:48;4.55;;;3.65;;
38787;SDS011;24536;45.488;12.238;2023-01-25T03:05:14;4.70;;;3.63;;
38787;SDS011;24536;45.488;12.238;2023-01-25T03:07:40;4.35;;;3.40;;
38787;SDS011;24536;45.488;12.238;2023-01-25T03:10:06;4.35;;;3.35;;
38787;SDS011;24536;45.488;12.238;2023-01-25T03:12:32;4.28;;;3.78;;
38787;SDS011;24536;45.488;12.238;2023-01-25T03:14:58;4.13;;;3.38;;
38787;SDS011;24536;45.488;12.238;2023-01-25T03:17:23;4.57;;;2.97;;
38787;SDS011;24536;45.488;12.238;2023-01-25T03:19:49;4.55;;;3.42;;
38787;SDS011;24536;45.488;12.238;2023-01-25T03:22:15;4.75;;;3.47;;
38787;SDS011;24536;45.488;12.238;2023-01-25T03:24:40;5.78;;;3.55;;
38787;SDS011;24536;45.488;12.238;2023-01-25T03:27:06;4.10;;;3.08;;
38787;SDS011;24536;45.488;12.238;2023-01-25T03:29:34;6.88;;;3.60;;
38787;SDS011;24536;45.488;12.238;2023-01-25T03:32:01;5.40;;;3.88;;
38787;SDS011;24536;45.488;12.238;2023-01-25T03:34:26;4.78;;;3.78;;
38787;SDS011;24536;45.488;12.238;2023-01-25T03:36:52;4.28;;;3.20;;
38787;SDS011;24536;45.488;12.238;2023-01-25T03:39:18;5.97;;;4.00;;
38787;SDS011;24536;45.488;12.238;2023-01-25T03:41:43;5.28;;;4.07;;
38787;SDS011;24536;45.488;12.238;2023-01-25T03:44:09;5.20;;;3.55;;
38787;SDS011;24536;45.488;12.238;2023-01-25T03:46:38;4.32;;;3.63;;
38787;SDS011;24536;45.488;12.238;2023-01-25T03:49:05;7.00;;;4.20;;
38787;SDS011;24536;45.488;12.238;2023-01-25T03:51:31;5.28;;;3.92;;
38787;SDS011;24536;45.488;12.238;2023-01-25T03:53:58;6.18;;;4.18;;
38787;SDS011;24536;45.488;12.238;2023-01-25T03:56:23;5.75;;;4.32;;
38787;SDS011;24536;45.488;12.238;2023-01-25T03:58:49;5.80;;;4.30;;
38787;SDS011;24536;45.488;12.238;2023-01-25T04:01:15;5.18;;;4.05;;
38787;SDS011;24536;45.488;12.238;2023-01-25T04:03:40;6.45;;;4.20;;
38787;SDS011;24536;45.488;12.238;2023-01-25T04:06:06;5.78;;;3.67;;
38787;SDS011;24536;45.488;12.238;2023-01-25T04:08:32;5.80;;;4.38;;
38787;SDS011;24536;45.488;12.238;2023-01-25T04:11:05;5.80;;;4.10;;
38787;SDS011;24536;45.488;12.238;2023-01-25T04:13:33;8.48;;;4.85;;
38787;SDS011;24536;45.488;12.238;2023-01-25T04:16:01;6.90;;;4.30;;
38787;SDS011;24536;45.488;12.238;2023-01-25T04:18:27;6.28;;;4.43;;
38787;SDS011;24536;45.488;12.238;2023-01-25T04:20:53;7.20;;;5.10;;
38787;SDS011;24536;45.488;12.238;2023-01-25T04:23:19;6.68;;;4.78;;
38787;SDS011;24536;45.488;12.238;2023-01-25T04:25:53;7.53;;;5.20;;
38787;SDS011;24536;45.488;12.238;2023-01-25T04:28:21;5.47;;;3.95;;
38787;SDS011;24536;45.488;12.238;2023-01-25T04:30:48;5.32;;;3.55;;
38787;SDS011;24536;45.488;12.238;2023-01-25T04:33:14;7.38;;;5.28;;
38787;SDS011;24536;45.488;12.238;2023-01-25T04:35:40;7.07;;;4.63;;
38787;SDS011;24536;45.488;12.238;2023-01-25T04:38:05;7.32;;;4.90;;
38787;SDS011;24536;45.488;12.238;2023-01-25T04:40:31;5.68;;;4.35;;
38787;SDS011;24536;45.488;12.238;2023-01-25T04:42:57;7.10;;;5.53;;
38787;SDS011;24536;45.488;12.238;2023-01-25T04:45:23;7.05;;;5.13;;
38787;SDS011;24536;45.488;12.238;2023-01-25T04:47:56;7.20;;;5.27;;
38787;SDS011;24536;45.488;12.238;2023-01-25T04:50:23;7.00;;;5.28;;
38787;SDS011;24536;45.488;12.238;2023-01-25T04:52:49;7.28;;;4.45;;
38787;SDS011;24536;45.488;12.238;2023-01-25T04:55:15;7.85;;;5.18;;
38787;SDS011;24536;45.488;12.238;2023-01-25T04:57:41;8.52;;;5.22;;
38787;SDS011;24536;45.488;12.238;2023-01-25T05:00:07;7.45;;;4.88;;
38787;SDS011;24536;45.488;12.238;2023-01-25T05:02:33;6.43;;;4.57;;
38787;SDS011;24536;45.488;12.238;2023-01-25T05:04:59;6.38;;;4.90;;
38787;SDS011;24536;45.488;12.238;2023-01-25T05:07:25;8.10;;;5.45;;
38787;SDS011;24536;45.488;12.238;2023-01-25T05:09:50;8.48;;;5.03;;
38787;SDS011;24536;45.488;12.238;2023-01-25T05:12:16;6.20;;;4.45;;
38787;SDS011;24536;45.488;12.238;2023-01-25T05:14:41;9.95;;;5.82;;
38787;SDS011;24536;45.488;12.238;2023-01-25T05:17:07;8.98;;;5.85;;
38787;SDS011;24536;45.488;12.238;2023-01-25T05:19:33;7.60;;;5.07;;
38787;SDS011;24536;45.488;12.238;2023-01-25T05:22:00;7.88;;;5.93;;
38787;SDS011;24536;45.488;12.238;2023-01-25T05:24:32;6.65;;;5.13;;
38787;SDS011;24536;45.488;12.238;2023-01-25T05:26:58;6.85;;;5.10;;
38787;SDS011;24536;45.488;12.238;2023-01-25T05:32:04;6.50;;;4.63;;
38787;SDS011;24536;45.488;12.238;2023-01-25T05:34:30;7.65;;;4.97;;
38787;SDS011;24536;45.488;12.238;2023-01-25T05:36:56;8.13;;;5.50;;
38787;SDS011;24536;45.488;12.238;2023-01-25T05:39:22;7.00;;;5.10;;
38787;SDS011;24536;45.488;12.238;2023-01-25T05:41:48;6.10;;;4.80;;
38787;SDS011;24536;45.488;12.238;2023-01-25T05:44:14;7.97;;;5.38;;
38787;SDS011;24536;45.488;12.238;2023-01-25T05:46:40;7.82;;;5.25;;
38787;SDS011;24536;45.488;12.238;2023-01-25T05:49:06;7.18;;;5.47;;
38787;SDS011;24536;45.488;12.238;2023-01-25T05:51:32;8.32;;;5.50;;
38787;SDS011;24536;45.488;12.238;2023-01-25T05:53:59;6.50;;;4.85;;
38787;SDS011;24536;45.488;12.238;2023-01-25T05:56:25;6.20;;;4.72;;
38787;SDS011;24536;45.488;12.238;2023-01-25T05:58:52;6.10;;;4.75;;
38787;SDS011;24536;45.488;12.238;2023-01-25T06:01:18;7.57;;;5.63;;
38787;SDS011;24536;45.488;12.238;2023-01-25T06:03:45;6.22;;;4.60;;
38787;SDS011;24536;45.488;12.238;2023-01-25T06:06:11;7.18;;;4.90;;
38787;SDS011;24536;45.488;12.238;2023-01-25T06:08:37;8.65;;;5.15;;
38787;SDS011;24536;45.488;12.238;2023-01-25T06:11:07;6.90;;;4.55;;
38787;SDS011;24536;45.488;12.238;2023-01-25T06:13:34;8.63;;;4.70;;
38787;SDS011;24536;45.488;12.238;2023-01-25T06:16:06;7.10;;;4.38;;
38787;SDS011;24536;45.488;12.238;2023-01-25T06:18:34;6.25;;;4.60;;
38787;SDS011;24536;45.488;12.238;2023-01-25T06:21:01;5.43;;;4.05;;
38787;SDS011;24536;45.488;12.238;2023-01-25T06:23:29;8.88;;;5.00;;
38787;SDS011;24536;45.488;12.238;2023-01-25T06:26:00;5.57;;;4.07;;
38787;SDS011;24536;45.488;12.238;2023-01-25T06:28:30;7.25;;;4.80;;
38787;SDS011;24536;45.488;12.238;2023-01-25T06:31:10;5.50;;;4.18;;
38787;SDS011;24536;45.488;12.238;2023-01-25T06:33:37;5.72;;;4.13;;
38787;SDS011;24536;45.488;12.238;2023-01-25T06:36:04;9.20;;;5.10;;
38787;SDS011;24536;45.488;12.238;2023-01-25T06:38:33;7.40;;;5.28;;
38787;SDS011;24536;45.488;12.238;2023-01-25T06:41:00;9.40;;;5.43;;
38787;SDS011;24536;45.488;12.238;2023-01-25T06:43:26;7.28;;;4.93;;
38787;SDS011;24536;45.488;12.238;2023-01-25T06:45:56;6.05;;;4.38;;
38787;SDS011;24536;45.488;12.238;2023-01-25T06:48:26;6.75;;;4.63;;
38787;SDS011;24536;45.488;12.238;2023-01-25T06:50:56;6.75;;;4.10;;
38787;SDS011;24536;45.488;12.238;2023-01-25T06:53:24;6.93;;;4.75;;
38787;SDS011;24536;45.488;12.238;2023-01-25T06:56:14;8.27;;;5.40;;
38787;SDS011;24536;45.488;12.238;2023-01-25T06:58:42;7.32;;;4.93;;
38787;SDS011;24536;45.488;12.238;2023-01-25T07:01:12;9.02;;;5.25;;
38787;SDS011;24536;45.488;12.238;2023-01-25T07:06:04;9.40;;;6.03;;
38787;SDS011;24536;45.488;12.238;2023-01-25T07:08:32;9.02;;;5.78;;
38787;SDS011;24536;45.488;12.238;2023-01-25T07:10:59;11.07;;;7.20;;
38787;SDS011;24536;45.488;12.238;2023-01-25T07:13:27;8.77;;;5.90;;
38787;SDS011;24536;45.488;12.238;2023-01-25T07:15:55;7.78;;;5.63;;
38787;SDS011;24536;45.488;12.238;2023-01-25T07:18:23;7.28;;;5.10;;
38787;SDS011;24536;45.488;12.238;2023-01-25T07:20:49;8.98;;;4.88;;
38787;SDS011;24536;45.488;12.238;2023-01-25T07:23:15;9.73;;;5.63;;
38787;SDS011;24536;45.488;12.238;2023-01-25T07:25:45;8.13;;;6.38;;
38787;SDS011;24536;45.488;12.238;2023-01-25T07:30:38;8.82;;;6.22;;
38787;SDS011;24536;45.488;12.238;2023-01-25T07:33:05;8.85;;;5.90;;
38787;SDS011;24536;45.488;12.238;2023-01-25T07:35:31;8.30;;;6.00;;
38787;SDS011;24536;45.488;12.238;2023-01-25T07:37:57;6.95;;;5.47;;
38787;SDS011;24536;45.488;12.238;2023-01-25T07:40:23;9.30;;;6.50;;
38787;SDS011;24536;45.488;12.238;2023-01-25T07:42:50;7.68;;;5.93;;
38787;SDS011;24536;45.488;12.238;2023-01-25T07:45:16;8.63;;;5.53;;
38787;SDS011;24536;45.488;12.238;2023-01-25T07:47:42;7.43;;;5.90;;
38787;SDS011;24536;45.488;12.238;2023-01-25T07:50:08;8.20;;;6.28;;
38787;SDS011;24536;45.488;12.238;2023-01-25T07:52:34;8.05;;;5.35;;
38787;SDS011;24536;45.488;12.238;2023-01-25T07:55:00;6.85;;;5.50;;
38787;SDS011;24536;45.488;12.238;2023-01-25T07:57:26;8.02;;;5.80;;
38787;SDS011;24536;45.488;12.238;2023-01-25T07:59:53;8.32;;;5.45;;
38787;SDS011;24536;45.488;12.238;2023-01-25T08:02:19;7.38;;;5.72;;
38787;SDS011;24536;45.488;12.238;2023-01-25T08:04:45;9.60;;;5.45;;
38787;SDS011;24536;45.488;12.238;2023-01-25T08:07:12;8.20;;;4.97;;
38787;SDS011;24536;45.488;12.238;2023-01-25T08:09:39;7.38;;;4.95;;
38787;SDS011;24536;45.488;12.238;2023-01-25T08:12:05;7.63;;;5.38;;
38787;SDS011;24536;45.488;12.238;2023-01-25T08:14:31;10.27;;;5.60;;
38787;SDS011;24536;45.488;12.238;2023-01-25T08:16:58;6.20;;;5.07;;
38787;SDS011;24536;45.488;12.238;2023-01-25T08:19:23;7.43;;;5.45;;
38787;SDS011;24536;45.488;12.238;2023-01-25T08:21:50;8.05;;;5.78;;
38787;SDS011;24536;45.488;12.238;2023-01-25T08:24:16;7.88;;;5.25;;
38787;SDS011;24536;45.488;12.238;2023-01-25T08:26:42;7.40;;;5.18;;
38787;SDS011;24536;45.488;12.238;2023-01-25T08:29:09;8.18;;;5.25;;
38787;SDS011;24536;45.488;12.238;2023-01-25T08:31:37;9.40;;;5.28;;
38787;SDS011;24536;45.488;12.238;2023-01-25T08:34:05;7.68;;;5.47;;
38787;SDS011;24536;45.488;12.238;2023-01-25T08:36:31;10.38;;;5.80;;
38787;SDS011;24536;45.488;12.238;2023-01-25T08:38:59;8.38;;;6.15;;
38787;SDS011;24536;45.488;12.238;2023-01-25T08:41:27;9.13;;;5.72;;
38787;SDS011;24536;45.488;12.238;2023-01-25T08:43:54;6.53;;;4.93;;
38787;SDS011;24536;45.488;12.238;2023-01-25T08:46:21;9.98;;;6.15;;
38787;SDS011;24536;45.488;12.238;2023-01-25T08:48:48;10.45;;;6.18;;
38787;SDS011;24536;45.488;12.238;2023-01-25T08:51:21;8.18;;;5.32;;
38787;SDS011;24536;45.488;12.238;2023-01-25T08:53:47;8.02;;;5.40;;
38787;SDS011;24536;45.488;12.238;2023-01-25T08:56:14;9.15;;;5.47;;
38787;SDS011;24536;45.488;12.238;2023-01-25T08:58:41;6.53;;;4.75;;
38787;SDS011;24536;45.488;12.238;2023-01-25T09:01:09;9.65;;;5.88;;
38787;SDS011;24536;45.488;12.238;2023-01-25T09:03:36;6.88;;;5.18;;
38787;SDS011;24536;45.488;12.238;2023-01-25T09:06:03;7.03;;;5.18;;
38787;SDS011;24536;45.488;12.238;2023-01-25T09:08:30;6.70;;;4.95;;
38787;SDS011;24536;45.488;12.238;2023-01-25T09:11:03;8.88;;;5.03;;
38787;SDS011;24536;45.488;12.238;2023-01-25T09:13:34;10.02;;;6.03;;
38787;SDS011;24536;45.488;12.238;2023-01-25T09:16:05;9.90;;;5.53;;
38787;SDS011;24536;45.488;12.238;2023-01-25T09:18:32;7.40;;;4.70;;
38787;SDS011;24536;45.488;12.238;2023-01-25T09:21:03;7.20;;;4.95;;
38787;SDS011;24536;45.488;12.238;2023-01-25T09:23:36;10.00;;;5.70;;
38787;SDS011;24536;45.488;12.238;2023-01-25T09:26:03;8.57;;;4.75;;
38787;SDS011;24536;45.488;12.238;2023-01-25T09:28:29;8.93;;;5.05;;
38787;SDS011;24536;45.488;12.238;2023-01-25T09:30:56;6.20;;;4.63;;
38787;SDS011;24536;45.488;12.238;2023-01-25T09:33:33;8.15;;;4.60;;
38787;SDS011;24536;45.488;12.238;2023-01-25T09:36:00;7.05;;;4.97;;
38787;SDS011;24536;45.488;12.238;2023-01-25T09:38:26;7.88;;;4.72;;
38787;SDS011;24536;45.488;12.238;2023-01-25T09:49:23;8.65;;;5.95;;
38787;SDS011;24536;45.488;12.238;2023-01-25T09:52:29;7.70;;;4.90;;
38787;SDS011;24536;45.488;12.238;2023-01-25T09:55:18;6.70;;;4.85;;
38787;SDS011;24536;45.488;12.238;2023-01-25T09:57:49;6.57;;;4.63;;
38787;SDS011;24536;45.488;12.238;2023-01-25T10:02:55;6.80;;;4.30;;
38787;SDS011;24536;45.488;12.238;2023-01-25T10:05:23;5.35;;;3.90;;
38787;SDS011;24536;45.488;12.238;2023-01-25T10:10:41;6.03;;;3.90;;
38787;SDS011;24536;45.488;12.238;2023-01-25T10:13:11;6.30;;;4.65;;
38787;SDS011;24536;45.488;12.238;2023-01-25T10:15:45;7.72;;;4.95;;
38787;SDS011;24536;45.488;12.238;2023-01-25T10:18:36;6.88;;;4.30;;
38787;SDS011;24536;45.488;12.238;2023-01-25T10:29:06;5.55;;;3.97;;
38787;SDS011;24536;45.488;12.238;2023-01-25T10:31:48;5.40;;;3.47;;
38787;SDS011;24536;45.488;12.238;2023-01-25T10:34:21;5.68;;;3.90;;
38787;SDS011;24536;45.488;12.238;2023-01-25T10:36:55;4.35;;;3.38;;
38787;SDS011;24536;45.488;12.238;2023-01-25T10:39:24;4.38;;;3.60;;
38787;SDS011;24536;45.488;12.238;2023-01-25T10:41:52;5.82;;;3.80;;
38787;SDS011;24536;45.488;12.238;2023-01-25T10:44:39;4.55;;;3.08;;
38787;SDS011;24536;45.488;12.238;2023-01-25T10:49:53;6.25;;;4.30;;
38787;SDS011;24536;45.488;12.238;2023-01-25T10:55:02;5.35;;;3.53;;
38787;SDS011;24536;45.488;12.238;2023-01-25T10:57:46;5.43;;;3.88;;
38787;SDS011;24536;45.488;12.238;2023-01-25T11:02:57;4.68;;;3.45;;
38787;SDS011;24536;45.488;12.238;2023-01-25T11:05:23;7.00;;;3.80;;
38787;SDS011;24536;45.488;12.238;2023-01-25T11:07:49;5.55;;;3.50;;
38787;SDS011;24536;45.488;12.238;2023-01-25T11:10:34;7.25;;;3.75;;
38787;SDS011;24536;45.488;12.238;2023-01-25T11:15:54;6.57;;;2.97;;
38787;SDS011;24536;45.488;12.238;2023-01-25T11:18:29;4.07;;;2.78;;
38787;SDS011;24536;45.488;12.238;2023-01-25T11:21:05;3.95;;;2.70;;
38787;SDS011;24536;45.488;12.238;2023-01-25T11:23:40;3.58;;;2.42;;
38787;SDS011;24536;45.488;12.238;2023-01-25T11:26:10;4.55;;;3.15;;
38787;SDS011;24536;45.488;12.238;2023-01-25T11:28:43;5.45;;;2.97;;
38787;SDS011;24536;45.488;12.238;2023-01-25T11:31:13;4.53;;;2.38;;
38787;SDS011;24536;45.488;12.238;2023-01-25T11:33:43;5.45;;;3.25;;
38787;SDS011;24536;45.488;12.238;2023-01-25T11:44:57;5.68;;;2.85;;
38787;SDS011;24536;45.488;12.238;2023-01-25T11:47:33;3.58;;;2.33;;
38787;SDS011;24536;45.488;12.238;2023-01-25T11:50:14;5.25;;;3.20;;
38787;SDS011;24536;45.488;12.238;2023-01-25T11:55:47;5.13;;;3.20;;
38787;SDS011;24536;45.488;12.238;2023-01-25T12:00:47;9.00;;;3.45;;
38787;SDS011;24536;45.488;12.238;2023-01-25T12:06:38;5.00;;;3.33;;
38787;SDS011;24536;45.488;12.238;2023-01-25T12:09:34;4.63;;;3.33;;
38787;SDS011;24536;45.488;12.238;2023-01-25T12:15:09;6.72;;;3.67;;
38787;SDS011;24536;45.488;12.238;2023-01-25T12:18:27;5.15;;;3.88;;
38787;SDS011;24536;45.488;12.238;2023-01-25T12:34:41;7.70;;;3.70;;
38787;SDS011;24536;45.488;12.238;2023-01-25T12:37:19;5.50;;;3.08;;
38787;SDS011;24536;45.488;12.238;2023-01-25T12:42:23;7.63;;;3.60;;
38787;SDS011;24536;45.488;12.238;2023-01-25T12:47:48;5.10;;;3.22;;
38787;SDS011;24536;45.488;12.238;2023-01-25T12:50:29;4.68;;;3.40;;
38787;SDS011;24536;45.488;12.238;2023-01-25T12:53:22;4.07;;;3.22;;
38787;SDS011;24536;45.488;12.238;2023-01-25T12:55:51;5.90;;;3.17;;
38787;SDS011;24536;45.488;12.238;2023-01-25T13:03:34;6.60;;;3.00;;
38787;SDS011;24536;45.488;12.238;2023-01-25T13:08:46;6.32;;;2.92;;
38787;SDS011;24536;45.488;12.238;2023-01-25T13:11:35;7.10;;;3.88;;
38787;SDS011;24536;45.488;12.238;2023-01-25T13:16:50;5.65;;;3.42;;
38787;SDS011;24536;45.488;12.238;2023-01-25T13:19:21;5.05;;;3.10;;
38787;SDS011;24536;45.488;12.238;2023-01-25T13:22:07;3.42;;;2.53;;
38787;SDS011;24536;45.488;12.238;2023-01-25T13:27:34;6.82;;;3.38;;
38787;SDS011;24536;45.488;12.238;2023-01-25T13:35:26;5.60;;;3.33;;
38787;SDS011;24536;45.488;12.238;2023-01-25T13:38:04;6.15;;;3.78;;
38787;SDS011;24536;45.488;12.238;2023-01-25T13:41:01;8.25;;;3.33;;
38787;SDS011;24536;45.488;12.238;2023-01-25T13:43:40;10.05;;;3.10;;
38787;SDS011;24536;45.488;12.238;2023-01-25T13:46:09;4.55;;;3.47;;
38787;SDS011;24536;45.488;12.238;2023-01-25T13:48:45;10.68;;;3.10;;
38787;SDS011;24536;45.488;12.238;2023-01-25T13:51:16;8.07;;;3.90;;
38787;SDS011;24536;45.488;12.238;2023-01-25T13:53:53;7.50;;;3.20;;
38787;SDS011;24536;45.488;12.238;2023-01-25T13:56:24;5.55;;;2.53;;
38787;SDS011;24536;45.488;12.238;2023-01-25T13:58:57;5.55;;;2.95;;
38787;SDS011;24536;45.488;12.238;2023-01-25T14:01:24;4.20;;;2.42;;
38787;SDS011;24536;45.488;12.238;2023-01-25T14:03:53;4.43;;;2.97;;
38787;SDS011;24536;45.488;12.238;2023-01-25T14:08:52;6.13;;;3.00;;
38787;SDS011;24536;45.488;12.238;2023-01-25T14:11:22;9.77;;;3.00;;
38787;SDS011;24536;45.488;12.238;2023-01-25T14:16:21;6.15;;;2.90;;
38787;SDS011;24536;45.488;12.238;2023-01-25T14:18:47;5.88;;;2.60;;
38787;SDS011;24536;45.488;12.238;2023-01-25T14:21:17;6.40;;;2.80;;
38787;SDS011;24536;45.488;12.238;2023-01-25T14:23:44;8.45;;;2.88;;
38787;SDS011;24536;45.488;12.238;2023-01-25T14:26:20;4.13;;;2.60;;
38787;SDS011;24536;45.488;12.238;2023-01-25T14:28:49;8.07;;;3.17;;
38787;SDS011;24536;45.488;12.238;2023-01-25T14:31:18;8.07;;;2.53;;
38787;SDS011;24536;45.488;12.238;2023-01-25T14:33:49;10.48;;;3.13;;
38787;SDS011;24536;45.488;12.238;2023-01-25T14:36:22;6.78;;;3.03;;
38787;SDS011;24536;45.488;12.238;2023-01-25T14:38:50;6.10;;;3.17;;
38787;SDS011;24536;45.488;12.238;2023-01-25T14:41:21;4.60;;;2.80;;
38787;SDS011;24536;45.488;12.238;2023-01-25T14:44:00;4.85;;;2.55;;
38787;SDS011;24536;45.488;12.238;2023-01-25T14:46:28;4.97;;;2.50;;
38787;SDS011;24536;45.488;12.238;2023-01-25T14:49:06;5.15;;;2.60;;
38787;SDS011;24536;45.488;12.238;2023-01-25T14:51:32;5.82;;;2.65;;
38787;SDS011;24536;45.488;12.238;2023-01-25T14:54:04;6.43;;;3.10;;
38787;SDS011;24536;45.488;12.238;2023-01-25T14:56:44;6.95;;;3.30;;
38787;SDS011;24536;45.488;12.238;2023-01-25T15:01:59;5.65;;;2.85;;
38787;SDS011;24536;45.488;12.238;2023-01-25T15:04:53;4.70;;;2.80;;
38787;SDS011;24536;45.488;12.238;2023-01-25T15:07:33;6.03;;;3.25;;
38787;SDS011;24536;45.488;12.238;2023-01-25T15:12:40;3.78;;;2.80;;
38787;SDS011;24536;45.488;12.238;2023-01-25T15:15:16;3.97;;;2.90;;
38787;SDS011;24536;45.488;12.238;2023-01-25T15:17:44;8.63;;;3.72;;
38787;SDS011;24536;45.488;12.238;2023-01-25T15:23:19;8.60;;;2.72;;
38787;SDS011;24536;45.488;12.238;2023-01-25T15:25:48;5.18;;;3.08;;
38787;SDS011;24536;45.488;12.238;2023-01-25T15:28:14;5.32;;;3.03;;
38787;SDS011;24536;45.488;12.238;2023-01-25T15:30:40;7.53;;;3.78;;
38787;SDS011;24536;45.488;12.238;2023-01-25T15:33:07;7.07;;;3.83;;
38787;SDS011;24536;45.488;12.238;2023-01-25T15:35:41;4.95;;;3.75;;
38787;SDS011;24536;45.488;12.238;2023-01-25T15:38:08;7.47;;;3.35;;
38787;SDS011;24536;45.488;12.238;2023-01-25T15:40:36;6.60;;;3.80;;
38787;SDS011;24536;45.488;12.238;2023-01-25T15:43:02;4.43;;;3.22;;
38787;SDS011;24536;45.488;12.238;2023-01-25T15:45:28;9.52;;;3.38;;
38787;SDS011;24536;45.488;12.238;2023-01-25T15:47:54;5.93;;;3.25;;
38787;SDS011;24536;45.488;12.238;2023-01-25T15:50:20;5.93;;;3.67;;
38787;SDS011;24536;45.488;12.238;2023-01-25T15:52:46;4.70;;;3.30;;
38787;SDS011;24536;45.488;12.238;2023-01-25T15:55:12;5.75;;;3.40;;
38787;SDS011;24536;45.488;12.238;2023-01-25T15:57:38;6.75;;;3.90;;
38787;SDS011;24536;45.488;12.238;2023-01-25T16:00:09;7.20;;;3.78;;
38787;SDS011;24536;45.488;12.238;2023-01-25T16:02:43;6.22;;;3.60;;
38787;SDS011;24536;45.488;12.238;2023-01-25T16:05:09;6.65;;;3.95;;
38787;SDS011;24536;45.488;12.238;2023-01-25T16:07:35;5.25;;;3.28;;
38787;SDS011;24536;45.488;12.238;2023-01-25T16:10:02;4.95;;;3.05;;
38787;SDS011;24536;45.488;12.238;2023-01-25T16:12:28;7.60;;;4.07;;
38787;SDS011;24536;45.488;12.238;2023-01-25T16:14:57;6.18;;;4.03;;
38787;SDS011;24536;45.488;12.238;2023-01-25T16:17:22;6.72;;;3.67;;
38787;SDS011;24536;45.488;12.238;2023-01-25T16:19:48;8.23;;;3.78;;
38787;SDS011;24536;45.488;12.238;2023-01-25T16:22:15;5.75;;;4.22;;
38787;SDS011;24536;45.488;12.238;2023-01-25T16:24:42;5.07;;;3.70;;
38787;SDS011;24536;45.488;12.238;2023-01-25T16:27:12;5.90;;;3.58;;
38787;SDS011;24536;45.488;12.238;2023-01-25T16:29:41;7.65;;;3.47;;
38787;SDS011;24536;45.488;12.238;2023-01-25T16:32:06;6.72;;;3.88;;
38787;SDS011;24536;45.488;12.238;2023-01-25T16:34:32;9.20;;;3.92;;
38787;SDS011;24536;45.488;12.238;2023-01-25T16:36:58;9.55;;;4.30;;
38787;SDS011;24536;45.488;12.238;2023-01-25T16:39:25;5.50;;;3.28;;
38787;SDS011;24536;45.488;12.238;2023-01-25T16:41:52;8.45;;;3.88;;
38787;SDS011;24536;45.488;12.238;2023-01-25T16:44:18;5.82;;;3.05;;
38787;SDS011;24536;45.488;12.238;2023-01-25T16:46:44;11.32;;;4.70;;
38787;SDS011;24536;45.488;12.238;2023-01-25T16:49:22;11.27;;;4.10;;
38787;SDS011;24536;45.488;12.238;2023-01-25T16:51:51;13.00;;;4.38;;